Cape Elizabeth- 45nm Nw Of Aberdeen, Wa (46041) Wave Buoy

9:50am - Wed 25th Nov 2015 All times are PST. -8 hours from GMT.

  • Sig Wave height 7.2ft
  • Swell Direction
  • Peak Period 11s
  • Average Period 8s
  • Wind
    11mph, 16mph gusts
  • Sea Temp 51°f
  • Air Temp 44°f
  • Sea Pressure 1024.5mb
  • Cape Elizabeth- 45nm Nw Of Aberdeen, Wa
  • Cape Elizabeth- 45nm Nw Of Aberdeen, Wa

More Historic Weather Station data

Upgrade to MSW Pro to gain access to the past 30 days of data for over 8000 Wavebouys and Weather Stations around the globe.

Join Pro

Comparision Forecast

View Surf forecast
Wed 11/25 9:50am 7ft 11s 8s 11 16 mph 1024.5mb 51f 44f
8:50am 8ft 11s 8s 11 16 mph 1023.7mb 51f 44f
6:50am 9ft 11s 8s 7 13 mph 1022.4mb 51f 45f
5:50am 8.5ft 11s 8s 7 9 mph 1021.7mb 51f 44f
4:50am 9ft 11s 9s 7 9 mph 1021.6mb 51f 45f
3:50am 9ft 11s 8s 4 9 mph 1021.3mb 51f 44f
2:50am 10ft 11s 9s 7 9 mph 1021.2mb 51f 45f
1:50am 10ft 11s 8s 9 13 mph 1020.4mb 52f 46f
12:50am 9.5ft 11s 8s 16 20 mph 1019.8mb 52f 45f
Tue 11/24 11:50pm 10.5ft 12s 8s 22 27 mph 1019.3mb 52f 47f
10:50pm 10ft 12s 7s 25 29 mph 1018.6mb 52f 47f
9:50pm 10ft 12s 7s 25 29 mph 1018.1mb 52f 48f
8:50pm 11ft 11s 7s 27 34 mph 1017.4mb 52f 47f
7:50pm 10ft 12s 7s 29 36 mph 1017mb 52f 47f
6:50pm 11ft 12s 8s 31 38 mph 1016.1mb 52f 47f
5:50pm 11ft 13s 7s 31 36 mph 1015.9mb 52f 48f
4:50pm 10.5ft 13s 7s 27 31 mph 1014.9mb 51f 48f
3:50pm 12ft 13s 8s 29 34 mph 1013.9mb 51f 48f
2:50pm 11ft 13s 8s 27 31 mph 1013mb 51f 48f
1:50pm 12ft 13s 8s 27 31 mph 1012.4mb 51f 48f
12:50pm 13ft 13s 9s 25 29 mph 1012mb 51f 47f
11:50am 12.5ft 13s 9s 20 25 mph 1011.7mb 51f 47f
10:50am 13ft 13s 10s 7 11 mph 1011.5mb 51f 45f
9:50am 13.5ft 14s 10s 2 7 mph 1010.6mb 51f 45f
8:50am 14ft 12s 10s 9 11 mph 1009.9mb 51f 45f
7:50am 14ft 13s 10s 9 13 mph 1008.4mb 51f 45f
6:50am 14ft 14s 10s 11 13 mph 1007.4mb 51f 45f
5:50am 13ft 13s 9s 9 11 mph 1006.4mb 52f 45f
4:50am 13ft 14s 9s 7 9 mph 1005.9mb 52f 46f
3:50am 13ft 13s 9s 4 7 mph 1005.6mb 52f 45f
2:50am 13ft 12s 9s 4 9 mph 1005.7mb 52f 45f
1:50am 13.5ft 11s 9s 7 9 mph 1005.6mb 53f 46f
12:50am 13ft 13s 8s 11 16 mph 1005.7mb 53f 46f
Mon 11/23 11:50pm 12ft 11s 8s 20 27 mph 1006mb 53f 46f
10:50pm 11.5ft 11s 8s 18 22 mph 1006.6mb 53f 47f
9:50pm 11ft 11s 8s 20 27 mph 1007mb 53f 47f
8:50pm 10ft 10s 7s 22 29 mph 1007.5mb 53f 47f
7:50pm 9.5ft 12s 7s 22 27 mph 1007.9mb 52f 48f
6:50pm 8ft 13s 8s 22 29 mph 1008.5mb 52f 47f
5:50pm 8.5ft 13s 8s 20 22 mph 1009mb 52f 46f
4:50pm 8.5ft 14s 8s 20 25 mph 1009.3mb 52f 46f
3:50pm 8ft 13s 9s 16 18 mph 1009.5mb 51f 48f
2:50pm 8.5ft 13s 10s 9 16 mph 1009.8mb 51f 47f
1:50pm 8ft 14s 9s 2 4 mph 1009.8mb 52f 47f
12:50pm 7ft 13s 9s 7 9 mph 1010mb 52f 46f
11:50am 7ft 14s 10s 9 11 mph 1010.3mb 52f 47f
10:50am 7.5ft 14s 10s 11 13 mph 1010.7mb 52f 46f
9:50am 8ft 15s 10s 11 13 mph 1010.7mb 52f 46f
8:50am 7.5ft 14s 10s 9 13 mph 1010.8mb 52f 47f
7:50am 8ft 14s 10s 7 9 mph 1011.1mb 52f 47f
6:50am 7ft 14s 10s 9 13 mph 1011.2mb 52f 46f
5:50am 8ft 15s 10s 13 16 mph 1011.4mb 52f 46f
4:50am 10ft 13s 11s 13 18 mph 1012mb 52f 46f
3:50am 7.5ft 12s 10s 13 16 mph 1012.3mb 51f 46f
2:50am 8ft 12s 11s 13 18 mph 1012.8mb 51f 47f
1:50am 7ft 14s 11s 11 16 mph 1013.2mb 51f 47f
12:50am 7ft 15s 11s 11 13 mph 1013.5mb 51f 47f
Sun 11/22 11:50pm 6.5ft 14s 11s 9 11 mph 1013.9mb 51f 48f
10:50pm 6.5ft 13s 11s 9 11 mph 1014.2mb 51f 48f
9:50pm 6ft 12s 10s 7 11 mph 1014.5mb 51f 48f
8:50pm 6ft 13s 10s 4 7 mph 1014.6mb 52f 49f
7:50pm 5ft 14s 10s 4 7 mph 1014.9mb 52f 49f
6:50pm 5.5ft 13s 10s 4 7 mph 1015.3mb 52f 49f
5:50pm 5ft 12s 10s 2 4 mph 1015.7mb 52f 49f
4:50pm 5ft 11s 9s  -  2 mph 1016.1mb 53f 48f
3:50pm 5ft 11s 9s 2 4 mph 1016.2mb 52f 48f
2:50pm 4.5ft 11s 9s 2
1016.6mb 52f 48f
1:50pm 5ft 11s 9s 2 4 mph 1017.1mb 52f 47f
12:50pm 4.5ft 11s 9s 4 7 mph 1017.6mb 52f 46f
11:50am 4.5ft 11s 8s 4 7 mph 1018.3mb 52f 46f
10:50am 4ft 12s 7s 9 11 mph 1019.3mb 52f 45f
9:50am 4.5ft 12s 7s 11 13 mph 1019.5mb 52f 45f
8:50am 4.5ft 12s 6s 13 18 mph 1019.5mb 52f 46f
7:50am 3.5ft 12s 7s 16 18 mph 1019.3mb 52f 48f
6:50am 3.5ft 13s 8s 11 13 mph 1019.9mb 53f 46f
5:50am 3.5ft 13s 8s 7 9 mph 1020.3mb 53f 46f
4:50am 3.5ft 13s 8s 7 9 mph 1020.6mb 53f 46f
3:50am 3.5ft 14s 8s 9 11 mph 1021.1mb 53f 47f
2:50am 3.5ft 14s 9s 7 11 mph 1021.8mb 53f 47f
1:50am 3ft 14s 8s 7 9 mph 1022.1mb 53f 47f
12:50am 3ft 15s 7s 9
1022.7mb 51f 48f
Sat 11/21 11:50pm 3ft 15s 8s 2 4 mph 1023mb 51f 48f
10:50pm 3ft 10s 9s 4 7 mph 1023.1mb 51f 48f
9:50pm 2.5ft 11s 9s 4 7 mph 1023.7mb 52f 48f
8:50pm 2.5ft 10s 9s 2
1023.9mb 52f 48f
7:50pm 2.5ft 10s 8s 2 4 mph 1024.2mb 52f 48f
6:50pm 2.5ft 10s 8s 4
1024.8mb 52f 48f